createdAt,value
2019-05-21T00:02:08.058Z,13.60
2019-05-21T00:04:37.053Z,13.17
2019-05-21T00:07:06.019Z,14.13
2019-05-21T00:09:34.882Z,13.83
2019-05-21T00:12:04.265Z,14.13
2019-05-21T00:14:33.176Z,13.67
2019-05-21T00:17:02.509Z,13.30
2019-05-21T00:19:31.502Z,13.47
2019-05-21T00:22:00.339Z,12.23
2019-05-21T00:24:29.277Z,12.73
2019-05-21T00:26:58.274Z,11.80
2019-05-21T00:30:12.710Z,12.43
2019-05-21T00:33:17.862Z,11.67
2019-05-21T00:36:24.473Z,12.40
2019-05-21T00:39:29.524Z,11.23
2019-05-21T00:42:00.009Z,12.30
2019-05-21T00:44:31.350Z,12.53
2019-05-21T00:47:00.587Z,11.80
2019-05-21T00:49:29.599Z,12.67
2019-05-21T00:52:06.853Z,11.73
2019-05-21T00:54:29.299Z,11.37
2019-05-21T00:56:58.286Z,11.27
2019-05-21T00:59:27.514Z,11.60
2019-05-21T01:01:56.497Z,11.93
2019-05-21T01:04:25.486Z,11.67
2019-05-21T01:06:54.520Z,11.67
2019-05-21T01:09:23.518Z,11.23
2019-05-21T01:11:52.354Z,11.37
2019-05-21T01:14:21.309Z,10.10
2019-05-21T01:16:50.278Z,9.70
2019-05-21T01:19:19.201Z,10.67
2019-05-21T01:21:48.115Z,9.77
2019-05-21T01:24:17.287Z,11.20
2019-05-21T01:26:46.191Z,11.17
2019-05-21T01:29:15.031Z,10.50
2019-05-21T01:31:43.869Z,9.70
2019-05-21T01:34:12.774Z,9.40
2019-05-21T01:36:41.938Z,7.33
2019-05-21T01:39:10.930Z,7.23
2019-05-21T01:41:39.855Z,7.53
2019-05-21T01:44:08.766Z,7.50
2019-05-21T01:46:37.608Z,7.83
2019-05-21T01:49:06.502Z,7.63
2019-05-21T01:51:35.438Z,8.27
2019-05-21T01:54:04.655Z,7.83
2019-05-21T01:56:33.581Z,7.03
2019-05-21T01:59:02.720Z,7.50
2019-05-21T02:01:31.626Z,7.77
2019-05-21T02:04:00.467Z,8.60
2019-05-21T02:06:29.538Z,7.97
2019-05-21T02:08:58.391Z,8.73
2019-05-21T02:11:27.322Z,7.07
2019-05-21T02:13:56.318Z,7.10
2019-05-21T02:16:25.400Z,6.83
2019-05-21T02:18:54.823Z,6.70
2019-05-21T02:21:23.821Z,6.53
2019-05-21T02:23:52.754Z,7.07
2019-05-21T02:26:21.843Z,7.73
2019-05-21T02:28:50.751Z,8.00
2019-05-21T02:31:19.840Z,7.45
2019-05-21T02:33:48.674Z,8.33
2019-05-21T02:36:17.682Z,7.17
2019-05-21T02:38:46.573Z,7.53
2019-05-21T02:41:15.975Z,8.00
2019-05-21T02:43:44.956Z,8.10
2019-05-21T02:46:14.531Z,8.70
2019-05-21T02:48:43.451Z,7.93
2019-05-21T02:51:12.436Z,7.43
2019-05-21T02:53:41.345Z,7.10
2019-05-21T02:56:10.344Z,7.00
2019-05-21T02:58:39.166Z,7.17
2019-05-21T03:01:24.375Z,5.90
2019-05-21T03:03:53.305Z,6.60
2019-05-21T03:06:22.314Z,6.70
2019-05-21T03:08:51.387Z,7.00
2019-05-21T03:11:20.616Z,6.77
2019-05-21T03:13:49.793Z,5.43
2019-05-21T03:16:18.703Z,6.27
2019-05-21T03:18:48.243Z,4.87
2019-05-21T03:21:17.434Z,4.80
2019-05-21T03:23:46.876Z,4.47
2019-05-21T03:26:15.787Z,4.43
2019-05-21T03:28:44.691Z,4.37
2019-05-21T03:31:13.613Z,3.60
2019-05-21T03:33:42.818Z,3.33
2019-05-21T03:36:11.657Z,3.20
2019-05-21T03:38:40.575Z,3.50
2019-05-21T03:41:10.004Z,2.57
2019-05-21T03:43:39.155Z,2.80
2019-05-21T03:46:08.159Z,2.67
2019-05-21T03:48:37.342Z,2.70
2019-05-21T03:51:06.330Z,2.90
2019-05-21T03:53:35.163Z,2.70
2019-05-21T03:56:04.091Z,2.47
2019-05-21T03:58:33.054Z,2.80
2019-05-21T04:01:01.890Z,3.33
2019-05-21T04:03:30.860Z,3.17
2019-05-21T04:05:59.704Z,3.63
2019-05-21T04:08:28.607Z,3.30
2019-05-21T04:10:57.748Z,2.97
2019-05-21T04:13:26.819Z,3.40
2019-05-21T04:16:14.733Z,3.30
2019-05-21T04:18:56.892Z,3.33
2019-05-21T04:21:25.736Z,3.07
2019-05-21T04:23:54.867Z,3.13
2019-05-21T04:26:23.775Z,2.60
2019-05-21T04:28:53.147Z,3.10
2019-05-21T04:31:21.980Z,2.43
2019-05-21T04:33:51.122Z,2.93
2019-05-21T04:36:20.032Z,3.47
2019-05-21T04:38:48.933Z,3.10
2019-05-21T04:41:18.082Z,3.97
2019-05-21T04:43:46.995Z,3.83
2019-05-21T04:46:16.265Z,3.13
2019-05-21T04:48:45.098Z,2.87
2019-05-21T04:51:14.328Z,3.43
2019-05-21T04:53:43.296Z,3.03
2019-05-21T04:56:12.189Z,3.10
2019-05-21T04:58:41.026Z,3.57
2019-05-21T05:01:10.238Z,3.60
2019-05-21T05:03:39.218Z,3.23
2019-05-21T05:06:08.359Z,3.80
2019-05-21T05:08:37.349Z,3.50
2019-05-21T05:11:06.243Z,3.77
2019-05-21T05:13:35.081Z,3.97
2019-05-21T05:16:04.512Z,3.63
2019-05-21T05:18:33.709Z,4.13
2019-05-21T05:21:02.674Z,4.30
2019-05-21T05:23:31.586Z,4.30
2019-05-21T05:26:00.568Z,4.77
2019-05-21T05:28:29.391Z,4.10
2019-05-21T05:30:58.286Z,4.23
2019-05-21T05:33:27.305Z,4.90
2019-05-21T05:35:56.210Z,4.43
2019-05-21T05:38:25.366Z,5.07
2019-05-21T05:40:54.343Z,5.23
2019-05-21T05:43:23.502Z,5.23
2019-05-21T05:45:52.342Z,4.80
2019-05-21T05:48:21.849Z,4.90
2019-05-21T05:50:52.816Z,4.43
2019-05-21T05:53:21.803Z,4.13
2019-05-21T05:55:50.617Z,3.90
2019-05-21T05:58:19.455Z,4.33
2019-05-21T06:00:48.433Z,4.80
2019-05-21T06:03:17.340Z,4.67
2019-05-21T06:05:46.597Z,4.57
2019-05-21T06:08:15.506Z,4.77
2019-05-21T06:10:44.641Z,4.40
2019-05-21T06:13:13.480Z,4.83
2019-05-21T06:15:42.451Z,4.30
2019-05-21T06:18:11.363Z,4.30
2019-05-21T06:20:40.578Z,4.33
2019-05-21T06:23:09.488Z,4.80
2019-05-21T06:25:57.592Z,4.03
2019-05-21T06:28:26.590Z,5.03
2019-05-21T06:30:55.985Z,5.10
2019-05-21T06:33:24.814Z,5.17
2019-05-21T06:35:53.785Z,4.93
2019-05-21T06:38:22.697Z,5.37
2019-05-21T06:40:51.538Z,5.27
2019-05-21T06:43:21.201Z,6.03
2019-05-21T06:45:50.426Z,6.30
2019-05-21T06:48:19.664Z,6.27
2019-05-21T06:50:48.642Z,5.90
2019-05-21T06:53:17.623Z,6.73
2019-05-21T06:55:46.603Z,7.50
2019-05-21T06:58:15.433Z,5.97
2019-05-21T07:00:44.363Z,5.60
2019-05-21T07:03:13.521Z,5.73
2019-05-21T07:05:57.721Z,6.17
2019-05-21T07:08:13.251Z,6.07
2019-05-21T07:10:42.477Z,6.43
2019-05-21T07:13:11.497Z,6.47
2019-05-21T07:15:40.813Z,6.23
2019-05-21T07:18:09.816Z,6.27
2019-05-21T07:20:38.788Z,6.13
2019-05-21T07:23:07.773Z,6.17
2019-05-21T07:25:36.671Z,5.70
2019-05-21T07:28:06.149Z,6.30
2019-05-21T07:30:35.179Z,6.17
2019-05-21T07:33:04.117Z,6.00
2019-05-21T07:35:33.075Z,6.13
2019-05-21T07:38:01.997Z,6.23
2019-05-21T07:40:30.954Z,5.77
2019-05-21T07:42:59.882Z,7.30
2019-05-21T07:45:29.033Z,8.40
2019-05-21T07:47:58.441Z,7.10
2019-05-21T07:50:27.420Z,7.20
2019-05-21T07:52:56.390Z,7.13
2019-05-21T07:55:25.377Z,7.70
2019-05-21T07:57:54.298Z,6.87
2019-05-21T08:00:23.383Z,6.40
2019-05-21T08:02:52.565Z,6.50
2019-05-21T08:05:21.556Z,7.23
2019-05-21T08:07:50.540Z,6.90
2019-05-21T08:10:19.745Z,4.83
2019-05-21T08:12:48.583Z,5.77
2019-05-21T08:15:17.550Z,6.23
2019-05-21T08:17:46.479Z,5.27
2019-05-21T08:20:16.682Z,4.70
2019-05-21T08:22:45.815Z,5.00
2019-05-21T08:25:15.272Z,3.67
2019-05-21T08:27:44.298Z,3.43
2019-05-21T08:30:15.217Z,4.50
2019-05-21T08:32:44.175Z,3.50
2019-05-21T08:35:13.494Z,3.60
2019-05-21T08:37:42.424Z,3.00
2019-05-21T08:40:12.340Z,2.40
2019-05-21T08:42:41.827Z,2.87
2019-05-21T08:45:11.414Z,2.57
2019-05-21T08:47:40.391Z,2.93
2019-05-21T08:50:09.995Z,2.40
2019-05-21T08:52:38.905Z,1.93
2019-05-21T08:55:08.666Z,1.70
2019-05-21T08:57:37.658Z,1.80
2019-05-21T09:00:08.910Z,1.43
2019-05-21T09:02:37.915Z,1.37
2019-05-21T09:05:08.420Z,1.40
2019-05-21T09:07:37.389Z,1.30
2019-05-21T09:10:06.976Z,1.40
2019-05-21T09:12:36.037Z,1.07
2019-05-21T09:15:05.534Z,1.10
2019-05-21T09:17:34.520Z,1.43
2019-05-21T09:20:03.729Z,1.30
2019-05-21T09:22:32.705Z,1.27
2019-05-21T09:25:02.266Z,1.50
2019-05-21T09:27:31.835Z,1.30
2019-05-21T09:30:00.829Z,1.20
2019-05-21T09:32:30.072Z,1.50
2019-05-21T09:34:58.978Z,1.70
2019-05-21T09:37:27.886Z,1.33
2019-05-21T09:39:57.114Z,1.30
2019-05-21T09:42:26.063Z,1.17
2019-05-21T09:44:55.069Z,1.30
2019-05-21T09:47:24.055Z,1.60
2019-05-21T09:49:53.935Z,1.60
2019-05-21T09:52:22.902Z,1.47
2019-05-21T09:54:51.891Z,1.30
2019-05-21T09:57:28.209Z,1.10
2019-05-21T10:00:05.745Z,1.40
2019-05-21T10:02:34.738Z,1.20
2019-05-21T10:05:04.148Z,1.23
2019-05-21T10:07:39.681Z,1.17
2019-05-21T10:10:04.426Z,1.70
2019-05-21T10:12:33.329Z,1.40
2019-05-21T10:15:02.381Z,1.30
2019-05-21T10:17:31.358Z,1.20
2019-05-21T10:20:00.355Z,1.20
2019-05-21T10:22:29.327Z,1.50
2019-05-21T10:24:58.942Z,1.20
2019-05-21T10:27:47.043Z,1.03
2019-05-21T10:30:16.436Z,1.03
2019-05-21T10:32:45.356Z,1.40
2019-05-21T10:35:14.339Z,1.20
2019-05-21T10:37:54.399Z,1.17
2019-05-21T10:40:15.162Z,1.13
2019-05-21T10:42:44.068Z,0.90
2019-05-21T10:45:13.910Z,0.80
2019-05-21T10:47:43.195Z,0.90
2019-05-21T10:50:12.178Z,0.97
2019-05-21T10:52:41.007Z,1.03
2019-05-21T10:55:15.395Z,1.10
2019-05-21T10:57:42.854Z,0.73
2019-05-21T11:00:22.257Z,0.87
2019-05-21T11:03:02.383Z,0.77
2019-05-21T11:05:36.331Z,0.67
2019-05-21T11:08:24.363Z,0.90
2019-05-21T11:10:37.938Z,0.77
2019-05-21T11:13:07.253Z,0.73
2019-05-21T11:15:36.252Z,1.07
2019-05-21T11:18:11.184Z,0.70
2019-05-21T11:20:36.238Z,0.87
2019-05-21T11:23:05.222Z,0.80
2019-05-21T11:25:34.381Z,0.80
2019-05-21T11:28:06.058Z,0.80
2019-05-21T11:30:34.117Z,1.10
2019-05-21T11:33:03.007Z,0.87
2019-05-21T11:35:35.271Z,0.70
2019-05-21T11:38:02.918Z,0.60
2019-05-21T11:40:31.954Z,0.93
2019-05-21T11:43:01.119Z,0.73
2019-05-21T11:45:32.817Z,0.90
2019-05-21T11:48:00.944Z,0.70
2019-05-21T11:50:30.269Z,0.87
2019-05-21T11:52:59.149Z,0.70
2019-05-21T11:55:28.089Z,0.80
2019-05-21T11:57:57.062Z,0.80
2019-05-21T12:00:27.427Z,0.77
2019-05-21T12:02:56.416Z,0.90
2019-05-21T12:05:25.398Z,0.60
2019-05-21T12:07:54.411Z,0.40
2019-05-21T12:10:23.405Z,0.80
2019-05-21T12:12:52.373Z,1.13
2019-05-21T12:15:21.359Z,0.80
2019-05-21T12:17:50.185Z,0.80
2019-05-21T12:20:35.382Z,0.60
2019-05-21T12:22:50.274Z,0.90
2019-05-21T12:25:19.661Z,0.50
2019-05-21T12:27:48.695Z,0.63
2019-05-21T12:30:18.057Z,0.62
2019-05-21T12:32:47.273Z,0.73
2019-05-21T12:35:16.299Z,0.55
2019-05-21T12:37:45.256Z,0.70
2019-05-21T12:40:15.356Z,1.00
2019-05-21T12:42:44.336Z,0.72
2019-05-21T12:45:13.344Z,0.60
2019-05-21T12:47:42.414Z,0.60
2019-05-21T12:50:12.099Z,0.80
2019-05-21T12:52:41.071Z,0.80
2019-05-21T12:55:10.351Z,0.60
2019-05-21T12:57:39.483Z,0.83
2019-05-21T13:00:12.215Z,0.70
2019-05-21T13:02:41.439Z,0.75
2019-05-21T13:05:11.659Z,0.67
2019-05-21T13:07:40.846Z,1.37
2019-05-21T13:10:10.131Z,0.53
2019-05-21T13:12:39.139Z,1.03
2019-05-21T13:15:08.661Z,0.77
2019-05-21T13:17:37.638Z,0.70
2019-05-21T13:20:07.590Z,0.60
2019-05-21T13:22:36.986Z,0.80
2019-05-21T13:25:06.706Z,0.60
2019-05-21T13:27:36.059Z,0.57
2019-05-21T13:30:05.598Z,0.73
2019-05-21T13:32:34.894Z,0.87
2019-05-21T13:35:04.396Z,1.00
2019-05-21T13:37:33.376Z,0.80
2019-05-21T13:40:02.353Z,0.73
2019-05-21T13:42:31.588Z,0.50
2019-05-21T13:45:00.503Z,0.87
2019-05-21T13:47:29.412Z,0.60
2019-05-21T13:49:58.238Z,0.90
2019-05-21T13:52:27.185Z,0.83
2019-05-21T13:54:56.092Z,0.60
2019-05-21T13:57:25.080Z,0.60
2019-05-21T13:59:54.325Z,1.00
2019-05-21T14:02:23.483Z,0.87
2019-05-21T14:04:52.497Z,0.68
2019-05-21T14:07:21.458Z,0.70
2019-05-21T14:10:12.519Z,0.63
2019-05-21T14:12:21.187Z,0.70
2019-05-21T14:14:50.323Z,0.80
2019-05-21T14:17:19.419Z,0.97
2019-05-21T14:19:48.380Z,0.80
2019-05-21T14:22:17.363Z,0.78
2019-05-21T14:24:46.272Z,0.70
2019-05-21T14:27:15.603Z,0.70
2019-05-21T14:29:44.425Z,0.73
2019-05-21T14:32:13.416Z,0.70
2019-05-21T14:34:42.568Z,0.50
2019-05-21T14:37:11.496Z,0.70
2019-05-21T14:39:40.711Z,0.83
2019-05-21T14:42:09.718Z,0.80
2019-05-21T14:44:38.641Z,0.53
2019-05-21T14:47:07.550Z,0.80
2019-05-21T14:49:36.553Z,0.80
2019-05-21T14:52:06.078Z,0.87
2019-05-21T14:54:34.921Z,0.80
2019-05-21T14:57:05.806Z,0.70
2019-05-21T14:59:34.712Z,0.90
2019-05-21T15:02:04.178Z,0.90
2019-05-21T15:04:33.584Z,1.00
2019-05-21T15:07:02.799Z,1.00
2019-05-21T15:09:53.279Z,0.90
2019-05-21T15:12:21.769Z,1.00
2019-05-21T15:14:50.834Z,0.80
2019-05-21T15:17:19.810Z,0.70
2019-05-21T15:19:52.060Z,0.70
2019-05-21T15:22:21.016Z,0.90
2019-05-21T15:24:49.914Z,1.00
2019-05-21T15:27:19.093Z,0.90
2019-05-21T15:29:48.039Z,1.30
2019-05-21T15:32:17.591Z,1.20
2019-05-21T15:34:46.677Z,1.80
2019-05-21T15:37:15.592Z,2.00
2019-05-21T15:39:44.480Z,2.40
2019-05-21T15:42:13.468Z,2.37
2019-05-21T15:44:42.290Z,2.33
2019-05-21T15:47:11.375Z,2.70
2019-05-21T15:49:46.673Z,3.23
2019-05-21T15:52:15.867Z,2.87
2019-05-21T15:54:44.855Z,3.20
2019-05-21T15:57:13.758Z,3.47
2019-05-21T15:59:42.663Z,3.53
2019-05-21T16:02:11.579Z,3.27
2019-05-21T16:04:40.645Z,3.40
2019-05-21T16:07:09.559Z,3.83
2019-05-21T16:09:46.422Z,3.90
2019-05-21T16:12:15.254Z,4.20
2019-05-21T16:14:44.168Z,3.37
2019-05-21T16:17:13.153Z,3.83
2019-05-21T16:19:58.500Z,4.90
2019-05-21T16:22:27.485Z,4.77
2019-05-21T16:24:56.482Z,4.53
2019-05-21T16:27:25.508Z,5.27
2019-05-21T16:29:54.696Z,5.80
2019-05-21T16:32:23.591Z,5.83
2019-05-21T16:34:52.964Z,5.87
2019-05-21T16:37:22.086Z,5.63
2019-05-21T16:39:53.147Z,6.43
2019-05-21T16:42:22.534Z,6.37
2019-05-21T16:44:51.382Z,5.70
2019-05-21T16:47:20.328Z,6.03
2019-05-21T16:49:49.270Z,7.20
2019-05-21T16:52:18.083Z,6.30
2019-05-21T16:54:47.254Z,6.73
2019-05-21T16:57:16.462Z,6.00
2019-05-21T16:59:45.450Z,7.03
2019-05-21T17:02:14.418Z,6.27
2019-05-21T17:04:43.412Z,6.63
2019-05-21T17:07:12.310Z,6.30
2019-05-21T17:09:41.232Z,6.87
2019-05-21T17:12:10.391Z,7.10
2019-05-21T17:14:39.374Z,7.20
2019-05-21T17:17:08.528Z,7.67
2019-05-21T17:19:37.515Z,7.20
2019-05-21T17:22:06.726Z,6.93
2019-05-21T17:24:35.968Z,6.90
2019-05-21T17:27:04.966Z,6.97
2019-05-21T17:29:33.801Z,6.43
2019-05-21T17:32:06.359Z,6.53
2019-05-21T17:34:33.474Z,6.07
2019-05-21T17:37:02.511Z,6.70
2019-05-21T17:39:31.627Z,7.30
2019-05-21T17:42:14.828Z,6.80
2019-05-21T17:44:31.531Z,6.90
2019-05-21T17:47:00.406Z,5.17
2019-05-21T17:49:29.362Z,6.33
2019-05-21T17:51:58.962Z,6.20
2019-05-21T17:54:27.881Z,6.13
2019-05-21T17:56:56.785Z,6.33
2019-05-21T17:59:26.002Z,5.03
2019-05-21T18:01:55.246Z,4.73
2019-05-21T18:04:25.929Z,4.57
2019-05-21T18:06:55.914Z,4.33
2019-05-21T18:09:26.797Z,4.80
2019-05-21T18:11:55.776Z,4.17
2019-05-21T18:14:24.835Z,4.23
2019-05-21T18:16:53.731Z,4.03
2019-05-21T18:19:22.844Z,4.67
2019-05-21T18:21:51.766Z,4.07
2019-05-21T18:24:20.907Z,4.50
2019-05-21T18:26:49.983Z,5.30
2019-05-21T18:29:40.291Z,5.00
2019-05-21T18:32:09.535Z,6.07
2019-05-21T18:34:38.370Z,6.17
2019-05-21T18:37:07.266Z,6.10
2019-05-21T18:39:37.457Z,6.20
2019-05-21T18:42:20.950Z,5.27
2019-05-21T18:44:37.344Z,5.27
2019-05-21T18:47:06.502Z,6.00
2019-05-21T18:49:35.874Z,5.83
2019-05-21T18:52:05.043Z,5.47
2019-05-21T18:54:34.368Z,6.77
2019-05-21T18:57:03.345Z,5.53
2019-05-21T18:59:38.625Z,5.77
2019-05-21T19:02:07.883Z,6.10
2019-05-21T19:04:37.123Z,5.90
2019-05-21T19:07:06.301Z,6.30
2019-05-21T19:09:35.402Z,6.20
2019-05-21T19:12:04.655Z,6.43
2019-05-21T19:14:33.487Z,6.30
2019-05-21T19:17:02.463Z,6.70
2019-05-21T19:19:31.397Z,6.23
2019-05-21T19:22:00.311Z,6.33
2019-05-21T19:24:29.291Z,6.10
2019-05-21T19:26:58.292Z,7.33
2019-05-21T19:29:27.262Z,7.00
2019-05-21T19:31:56.119Z,6.93
2019-05-21T19:34:25.105Z,7.43
2019-05-21T19:36:54.136Z,8.30
2019-05-21T19:39:23.307Z,8.40
2019-05-21T19:41:52.587Z,7.77
2019-05-21T19:44:21.663Z,7.80
2019-05-21T19:46:50.760Z,8.73
2019-05-21T19:49:19.885Z,8.13
2019-05-21T19:51:48.806Z,7.53
2019-05-21T19:54:17.798Z,8.07
2019-05-21T19:56:46.787Z,8.20
2019-05-21T19:59:15.701Z,8.37
2019-05-21T20:01:44.616Z,8.10
2019-05-21T20:04:14.197Z,9.03
2019-05-21T20:06:43.621Z,9.17
2019-05-21T20:09:15.103Z,9.33
2019-05-21T20:11:44.678Z,9.23
2019-05-21T20:14:14.130Z,8.00
2019-05-21T20:16:43.551Z,8.87
2019-05-21T20:19:13.914Z,8.17
2019-05-21T20:21:43.716Z,8.80
2019-05-21T20:24:13.343Z,8.57
2019-05-21T20:26:42.715Z,7.90
2019-05-21T20:29:12.592Z,8.00
2019-05-21T20:31:41.498Z,8.43
2019-05-21T20:34:11.492Z,8.13
2019-05-21T20:36:41.000Z,8.43
2019-05-21T20:39:12.654Z,8.47
2019-05-21T20:41:41.955Z,8.90
2019-05-21T20:44:15.123Z,9.20
2019-05-21T20:46:45.205Z,9.83
2019-05-21T20:49:14.274Z,9.10
2019-05-21T20:51:44.140Z,9.37
2019-05-21T20:54:14.758Z,8.83
2019-05-21T20:56:44.439Z,9.27
2019-05-21T20:59:13.689Z,8.57
2019-05-21T21:01:43.757Z,8.83
2019-05-21T21:04:12.653Z,9.33
2019-05-21T21:06:41.698Z,10.03
2019-05-21T21:09:12.218Z,8.33
2019-05-21T21:11:42.424Z,8.37
2019-05-21T21:14:17.976Z,7.90
2019-05-21T21:16:44.698Z,8.07
2019-05-21T21:19:13.675Z,8.73
2019-05-21T21:21:42.694Z,8.10
2019-05-21T21:24:11.668Z,9.10
2019-05-21T21:26:40.587Z,8.80
2019-05-21T21:29:09.619Z,9.17
2019-05-21T21:31:39.123Z,8.80
2019-05-21T21:34:08.032Z,8.20
2019-05-21T21:36:37.705Z,7.20
2019-05-21T21:39:07.728Z,7.63
2019-05-21T21:41:38.375Z,7.23
2019-05-21T21:44:07.373Z,7.80
2019-05-21T21:46:36.661Z,9.57
2019-05-21T21:49:06.042Z,8.57
2019-05-21T21:51:35.444Z,8.30
2019-05-21T21:54:04.986Z,9.23
2019-05-21T21:56:34.459Z,8.87
2019-05-21T21:59:03.360Z,8.57
2019-05-21T22:01:56.638Z,8.90
2019-05-21T22:04:32.082Z,8.33
2019-05-21T22:07:01.572Z,8.80
2019-05-21T22:09:33.443Z,9.37
2019-05-21T22:12:05.209Z,9.23
2019-05-21T22:14:47.978Z,9.90
2019-05-21T22:17:06.630Z,9.63
2019-05-21T22:19:35.955Z,10.57
2019-05-21T22:22:07.238Z,12.17
2019-05-21T22:24:36.224Z,11.73
2019-05-21T22:27:05.521Z,11.93
2019-05-21T22:29:35.013Z,11.40
2019-05-21T22:32:04.009Z,12.17
2019-05-21T22:34:33.246Z,11.90
2019-05-21T22:37:02.203Z,12.30
2019-05-21T22:39:32.628Z,12.87
2019-05-21T22:42:02.090Z,13.00
2019-05-21T22:44:31.601Z,13.93
2019-05-21T22:47:00.628Z,13.17
2019-05-21T22:49:33.672Z,14.00
2019-05-21T22:52:00.877Z,13.27
2019-05-21T22:54:29.962Z,12.73
2019-05-21T22:56:58.882Z,14.30
2019-05-21T22:59:28.123Z,14.37
2019-05-21T23:01:58.711Z,13.47
2019-05-21T23:04:28.008Z,14.67
2019-05-21T23:06:56.910Z,13.03
2019-05-21T23:09:25.906Z,13.83
2019-05-21T23:11:54.809Z,13.67
2019-05-21T23:14:23.811Z,13.90
2019-05-21T23:16:53.314Z,13.13
2019-05-21T23:19:24.244Z,12.80
2019-05-21T23:21:54.387Z,12.57
2019-05-21T23:24:24.782Z,12.47
2019-05-21T23:26:54.302Z,12.53
2019-05-21T23:29:23.902Z,13.20
2019-05-21T23:31:53.066Z,12.93
2019-05-21T23:34:22.184Z,12.73
2019-05-21T23:36:51.504Z,13.43
2019-05-21T23:39:24.751Z,12.17
2019-05-21T23:41:55.102Z,14.07
2019-05-21T23:44:24.679Z,12.60
2019-05-21T23:46:53.689Z,11.60
2019-05-21T23:49:23.278Z,11.80
2019-05-21T23:51:52.298Z,12.50
2019-05-21T23:54:21.338Z,11.17
2019-05-21T23:56:50.262Z,11.00
2019-05-21T23:59:20.844Z,11.43
